Time;durP1;ratioP1;P1;durP2;ratioP2;P2;SDS_P1;SDS_P2;PMS_P1;PMS_P2;Temp;Humidity;BMP_temperature;BMP_pressure;BME280_temperature;BME280_humidity;BME280_pressure;Samples;Min_cycle;Max_cycle;Signal;HPM_P1;HPM_P2
2023/12/22 00:01:26;;;;;;;0.60;0.30;;;18.40;50.20;;;;;;5150528;27;45390;-63
2023/12/22 00:03:53;;;;;;;0.80;0.43;;;18.40;50.20;;;;;;5150631;27;45277;-64
2023/12/22 00:06:20;;;;;;;0.50;0.50;;;18.40;50.20;;;;;;5150643;27;45367;-64
2023/12/22 00:08:46;;;;;;;0.55;0.30;;;18.40;50.20;;;;;;5150318;27;46396;-63
2023/12/22 00:11:13;;;;;;;0.50;0.50;;;18.30;50.10;;;;;;5150679;27;45327;-64
2023/12/22 00:13:41;;;;;;;0.65;0.50;;;18.30;50.20;;;;;;5150350;27;45146;-64
2023/12/22 00:16:08;;;;;;;0.50;0.50;;;18.30;50.20;;;;;;5150681;27;45309;-64
2023/12/22 00:18:35;;;;;;;0.30;0.30;;;18.30;50.30;;;;;;5150249;27;46452;-65
2023/12/22 00:21:02;;;;;;;0.32;0.32;;;18.30;50.30;;;;;;5150610;27;45357;-64
2023/12/22 00:23:29;;;;;;;0.32;0.30;;;18.20;50.30;;;;;;5150169;27;45244;-63
2023/12/22 00:25:55;;;;;;;0.68;0.40;;;18.20;50.40;;;;;;5150361;27;45438;-64
2023/12/22 00:28:22;;;;;;;0.65;0.30;;;18.20;50.30;;;;;;5150130;27;46390;-64
2023/12/22 00:30:50;;;;;;;0.30;0.30;;;18.20;50.40;;;;;;5150269;27;45445;-64
2023/12/22 00:33:17;;;;;;;0.30;0.30;;;18.20;51.00;;;;;;5150268;27;45397;-65
2023/12/22 00:35:44;;;;;;;0.57;0.57;;;18.20;50.40;;;;;;5150148;27;45268;-64
2023/12/22 00:38:11;;;;;;;0.30;0.30;;;18.20;50.50;;;;;;5149966;27;45311;-64
2023/12/22 00:40:38;;;;;;;0.20;0.20;;;18.10;50.40;;;;;;5188600;27;45536;-64
2023/12/22 00:43:04;;;;;;;0.55;0.22;;;18.10;50.30;;;;;;5192424;27;45367;-64
2023/12/22 00:45:33;;;;;;;0.70;0.28;;;18.10;50.40;;;;;;5192228;27;45315;-65
2023/12/22 00:48:01;;;;;;;1.67;0.38;;;18.10;50.40;;;;;;5192070;27;45169;-64
2023/12/22 00:50:28;;;;;;;1.20;0.38;;;18.00;50.40;;;;;;5179414;27;45427;-64
2023/12/22 00:52:54;;;;;;;0.52;0.38;;;18.00;50.40;;;;;;5170960;27;45387;-63
2023/12/22 00:55:21;;;;;;;0.30;0.28;;;18.00;50.40;;;;;;5170867;27;45328;-64
2023/12/22 00:57:48;;;;;;;0.88;0.50;;;18.00;50.50;;;;;;5170585;27;46364;-64
2023/12/22 01:00:16;;;;;;;0.30;0.30;;;18.00;50.50;;;;;;5170597;27;45507;-64
2023/12/22 01:02:43;;;;;;;0.45;0.40;;;18.00;50.50;;;;;;5170930;27;45387;-64
2023/12/22 01:05:12;;;;;;;0.40;0.40;;;17.90;50.50;;;;;;5170849;27;45272;-63
2023/12/22 01:07:38;;;;;;;1.08;0.50;;;17.90;50.50;;;;;;5170562;27;45210;-64
2023/12/22 01:10:06;;;;;;;0.30;0.20;;;17.90;50.50;;;;;;5170041;27;45273;-63
2023/12/22 01:12:33;;;;;;;0.43;0.43;;;17.90;50.50;;;;;;5170723;27;45399;-64
2023/12/22 01:15:00;;;;;;;0.40;0.40;;;17.90;51.10;;;;;;5170745;27;45388;-63
2023/12/22 01:17:27;;;;;;;0.30;0.30;;;17.90;50.50;;;;;;5169932;27;46558;-64
2023/12/22 01:19:54;;;;;;;0.40;0.40;;;17.90;50.50;;;;;;5170458;27;45254;-63
2023/12/22 01:22:22;;;;;;;0.73;0.50;;;17.80;50.50;;;;;;5177820;27;45396;-63
2023/12/22 01:24:49;;;;;;;0.35;0.35;;;17.80;50.50;;;;;;5191450;27;45363;-63
2023/12/22 01:27:16;;;;;;;1.65;0.32;;;17.80;50.50;;;;;;5191844;27;46312;-64
2023/12/22 01:29:43;;;;;;;0.30;0.30;;;17.70;50.50;;;;;;5191464;27;45238;-63
2023/12/22 01:32:09;;;;;;;0.50;0.50;;;17.70;50.50;;;;;;5191553;27;45194;-63
2023/12/22 01:34:36;;;;;;;2.17;0.40;;;17.70;50.60;;;;;;5190808;27;45280;-64
2023/12/22 01:37:03;;;;;;;0.45;0.45;;;17.70;50.60;;;;;;5191124;27;45312;-63
2023/12/22 01:39:32;;;;;;;0.40;0.38;;;17.70;50.60;;;;;;5191026;27;45251;-63
2023/12/22 01:41:58;;;;;;;0.70;0.32;;;17.70;50.60;;;;;;5191391;27;45186;-63
2023/12/22 01:44:25;;;;;;;1.05;0.50;;;17.70;50.60;;;;;;5191458;27;45399;-63
2023/12/22 01:46:52;;;;;;;0.32;0.32;;;17.60;50.50;;;;;;5190842;27;45352;-63
2023/12/22 01:49:19;;;;;;;1.13;0.43;;;17.60;50.60;;;;;;5188535;27;45441;-63
2023/12/22 01:51:46;;;;;;;0.32;0.30;;;17.60;50.60;;;;;;5170032;27;45330;-63
2023/12/22 01:54:12;;;;;;;0.47;0.40;;;17.60;50.70;;;;;;5169789;27;45418;-63
2023/12/22 01:56:41;;;;;;;0.22;0.22;;;17.60;50.70;;;;;;5169470;27;45525;-64
2023/12/22 01:59:07;;;;;;;0.75;0.30;;;17.60;50.70;;;;;;5169764;27;45351;-64
2023/12/22 02:01:33;;;;;;;0.63;0.45;;;17.50;50.60;;;;;;5169877;27;45322;-62
2023/12/22 02:04:00;;;;;;;0.30;0.30;;;17.60;51.30;;;;;;5166870;27;45527;-63
2023/12/22 02:06:27;;;;;;;1.08;0.28;;;17.50;50.70;;;;;;5169399;27;45582;-64
2023/12/22 02:08:54;;;;;;;0.30;0.30;;;17.50;50.70;;;;;;5169524;27;45149;-63
2023/12/22 02:11:21;;;;;;;0.40;0.22;;;17.50;51.30;;;;;;5169739;27;45404;-63
2023/12/22 02:13:49;;;;;;;0.60;0.40;;;17.50;50.70;;;;;;5169756;27;45543;-63
2023/12/22 02:16:19;;;;;;;0.47;0.30;;;17.50;50.70;;;;;;5168868;27;46376;-63
2023/12/22 02:18:47;;;;;;;1.10;0.30;;;17.50;51.30;;;;;;5169336;27;45396;-63
2023/12/22 02:21:14;;;;;;;0.68;0.50;;;17.40;50.70;;;;;;5169589;27;45464;-62
2023/12/22 02:23:42;;;;;;;0.30;0.30;;;17.40;50.70;;;;;;5188537;27;45384;-62
2023/12/22 02:26:13;;;;;;;0.63;0.20;;;17.40;50.80;;;;;;5190127;27;46676;-63
2023/12/22 02:28:40;;;;;;;0.80;0.30;;;17.40;50.80;;;;;;5190413;27;45393;-62
2023/12/22 02:31:10;;;;;;;0.40;0.30;;;17.40;50.80;;;;;;5190589;27;45288;-63
2023/12/22 02:33:37;;;;;;;0.30;0.30;;;17.40;50.80;;;;;;5190727;27;45388;-63
2023/12/22 02:36:05;;;;;;;0.38;0.38;;;17.30;50.80;;;;;;5190052;27;45545;-62
2023/12/22 02:38:31;;;;;;;0.38;0.30;;;17.30;50.80;;;;;;5190139;27;45254;-63
2023/12/22 02:41:00;;;;;;;0.60;0.60;;;17.30;51.40;;;;;;5190419;27;45272;-63
2023/12/22 02:43:26;;;;;;;0.57;0.30;;;17.30;50.80;;;;;;5190513;27;45349;-63
2023/12/22 02:45:53;;;;;;;0.30;0.30;;;17.30;50.80;;;;;;5189342;27;45411;-63
2023/12/22 02:48:20;;;;;;;0.90;0.20;;;17.30;50.80;;;;;;5189587;27;45309;-63
2023/12/22 02:50:47;;;;;;;0.65;0.47;;;17.30;50.80;;;;;;5174794;27;45254;-63
2023/12/22 02:53:14;;;;;;;1.13;0.30;;;17.30;50.90;;;;;;5169048;27;45395;-64
2023/12/22 02:55:40;;;;;;;0.30;0.30;;;17.20;51.50;;;;;;5168752;27;46632;-64
2023/12/22 02:58:09;;;;;;;1.05;0.50;;;17.20;50.90;;;;;;5169089;27;45353;-64
2023/12/22 03:00:35;;;;;;;0.25;0.20;;;17.20;50.90;;;;;;5169056;27;45268;-64
2023/12/22 03:03:02;;;;;;;0.40;0.40;;;17.20;51.00;;;;;;5169175;27;45397;-63
2023/12/22 03:05:29;;;;;;;0.10;0.08;;;17.20;51.00;;;;;;5167987;27;45393;-63
2023/12/22 03:07:56;;;;;;;0.93;0.30;;;17.10;51.00;;;;;;5168666;27;45377;-64
2023/12/22 03:10:23;;;;;;;0.50;0.47;;;17.10;51.00;;;;;;5169095;27;45298;-63
2023/12/22 03:12:49;;;;;;;0.50;0.50;;;17.10;51.00;;;;;;5169065;27;45436;-64
2023/12/22 03:15:17;;;;;;;0.63;0.40;;;17.10;51.00;;;;;;5168419;27;45377;-64
2023/12/22 03:17:44;;;;;;;1.05;0.50;;;17.10;51.00;;;;;;5168217;27;45301;-63
2023/12/22 03:20:11;;;;;;;0.63;0.25;;;17.10;51.00;;;;;;5168818;27;45513;-63
2023/12/22 03:22:38;;;;;;;0.65;0.50;;;17.10;51.10;;;;;;5178511;27;45349;-63
2023/12/22 03:25:05;;;;;;;0.30;0.30;;;17.10;51.10;;;;;;5189565;27;46369;-64
2023/12/22 03:27:32;;;;;;;1.00;0.55;;;17.10;51.10;;;;;;5189443;27;45292;-63
2023/12/22 03:29:59;;;;;;;1.08;0.30;;;17.00;51.00;;;;;;5190038;27;45249;-63
2023/12/22 03:32:27;;;;;;;0.75;0.40;;;17.00;51.00;;;;;;5190465;27;45420;-63
2023/12/22 03:34:54;;;;;;;0.77;0.38;;;17.00;51.00;;;;;;5189793;27;46504;-63
2023/12/22 03:37:21;;;;;;;1.77;0.30;;;17.00;51.00;;;;;;5189622;27;45387;-64
2023/12/22 03:39:48;;;;;;;0.40;0.40;;;17.00;51.00;;;;;;5189574;27;45393;-63
2023/12/22 03:42:15;;;;;;;1.08;0.40;;;17.00;51.10;;;;;;5190254;27;45449;-62
2023/12/22 03:44:41;;;;;;;0.70;0.50;;;17.00;51.10;;;;;;5189321;27;46379;-62
2023/12/22 03:47:08;;;;;;;1.40;0.38;;;16.90;51.70;;;;;;5189680;27;45358;-64
2023/12/22 03:49:36;;;;;;;0.40;0.40;;;17.00;51.10;;;;;;5184715;27;45442;-62
2023/12/22 03:52:04;;;;;;;0.30;0.30;;;16.90;51.00;;;;;;5168476;27;45216;-63
2023/12/22 03:54:30;;;;;;;0.22;0.20;;;16.90;51.10;;;;;;5168158;27;47405;-63
2023/12/22 03:56:57;;;;;;;0.80;0.20;;;16.90;51.10;;;;;;5167628;27;45315;-63
2023/12/22 03:59:24;;;;;;;0.13;0.13;;;16.90;51.10;;;;;;5171338;27;45267;-63
2023/12/22 04:01:55;;;;;;;0.60;0.30;;;16.90;51.20;;;;;;5171906;27;45308;-63
2023/12/22 04:04:22;;;;;;;0.25;0.25;;;16.90;51.10;;;;;;5171540;27;46770;-63
2023/12/22 04:06:51;;;;;;;0.77;0.40;;;16.90;51.10;;;;;;5171353;27;45323;-62
2023/12/22 04:09:17;;;;;;;0.47;0.40;;;16.80;51.20;;;;;;5171707;27;45283;-63
2023/12/22 04:11:44;;;;;;;0.93;0.40;;;16.80;51.20;;;;;;5171972;27;45221;-63
2023/12/22 04:14:11;;;;;;;0.32;0.22;;;16.80;51.20;;;;;;5171425;27;45304;-62
2023/12/22 04:16:38;;;;;;;1.90;0.52;;;16.80;51.20;;;;;;5170946;27;45251;-63
2023/12/22 04:19:05;;;;;;;1.15;0.28;;;16.80;51.20;;;;;;5171865;27;45516;-62
2023/12/22 04:21:32;;;;;;;0.40;0.40;;;16.80;51.20;;;;;;5171315;27;45163;-63
2023/12/22 04:24:00;;;;;;;0.32;0.32;;;16.80;51.20;;;;;;5192319;27;45406;-62
2023/12/22 04:26:27;;;;;;;0.85;0.57;;;16.80;51.20;;;;;;5192325;27;45376;-63
2023/12/22 04:28:54;;;;;;;0.45;0.38;;;16.70;51.20;;;;;;5192644;27;45399;-62
2023/12/22 04:31:20;;;;;;;1.05;0.20;;;16.70;51.30;;;;;;5192779;27;45494;-63
2023/12/22 04:33:47;;;;;;;0.85;0.40;;;16.70;51.20;;;;;;5192697;27;45276;-62
2023/12/22 04:36:14;;;;;;;2.30;0.45;;;16.70;51.20;;;;;;5192177;27;45197;-63
2023/12/22 04:38:41;;;;;;;0.60;0.60;;;16.70;51.20;;;;;;5189764;27;45472;-62
2023/12/22 04:41:09;;;;;;;1.42;0.50;;;16.70;51.20;;;;;;5192667;27;45608;-62
2023/12/22 04:43:36;;;;;;;0.47;0.40;;;16.70;51.20;;;;;;5192427;27;46393;-63
2023/12/22 04:46:03;;;;;;;0.47;0.40;;;16.70;51.20;;;;;;5192047;27;45409;-62
2023/12/22 04:48:30;;;;;;;0.65;0.45;;;16.60;51.20;;;;;;5192506;27;45311;-63
2023/12/22 04:50:57;;;;;;;0.80;0.40;;;16.60;51.20;;;;;;5175539;27;45360;-63
2023/12/22 04:53:23;;;;;;;0.50;0.38;;;16.60;51.20;;;;;;5170804;27;45352;-62
2023/12/22 04:55:50;;;;;;;1.60;0.43;;;16.60;51.20;;;;;;5170839;27;45307;-63
2023/12/22 04:58:18;;;;;;;0.22;0.22;;;16.60;51.30;;;;;;5170964;27;45301;-63
2023/12/22 05:00:45;;;;;;;0.65;0.43;;;16.60;51.40;;;;;;5171422;27;45405;-63
2023/12/22 05:03:12;;;;;;;0.55;0.32;;;16.60;51.40;;;;;;5170954;27;46316;-63
2023/12/22 05:05:39;;;;;;;2.17;0.60;;;16.60;51.30;;;;;;5170498;27;45439;-64
2023/12/22 05:08:06;;;;;;;0.25;0.25;;;16.60;51.30;;;;;;5171144;27;45455;-62
2023/12/22 05:10:33;;;;;;;0.63;0.38;;;16.50;51.20;;;;;;5169676;27;45331;-63
2023/12/22 05:13:00;;;;;;;0.55;0.28;;;16.50;51.30;;;;;;5170652;27;46880;-62
2023/12/22 05:15:28;;;;;;;0.55;0.25;;;16.50;51.20;;;;;;5170458;27;45513;-62
2023/12/22 05:17:55;;;;;;;0.30;0.30;;;16.50;51.20;;;;;;5170514;27;45271;-63
2023/12/22 05:20:22;;;;;;;1.33;0.40;;;16.50;51.20;;;;;;5170696;27;45403;-63
2023/12/22 05:22:48;;;;;;;0.98;0.50;;;16.50;51.30;;;;;;5181523;27;46387;-63
2023/12/22 05:25:15;;;;;;;0.30;0.30;;;16.50;51.30;;;;;;5191574;27;45137;-63
2023/12/22 05:27:43;;;;;;;0.50;0.50;;;16.50;51.30;;;;;;5191829;27;45334;-63
2023/12/22 05:30:10;;;;;;;0.38;0.20;;;16.50;51.30;;;;;;5191945;27;45453;-63
2023/12/22 05:32:38;;;;;;;0.95;0.45;;;16.50;51.30;;;;;;5191424;27;46723;-63
2023/12/22 05:35:06;;;;;;;0.30;0.30;;;16.50;51.30;;;;;;5191432;27;45365;-63
2023/12/22 05:37:33;;;;;;;0.35;0.35;;;16.50;51.30;;;;;;5191382;27;45342;-62
2023/12/22 05:40:00;;;;;;;1.05;0.50;;;16.40;51.30;;;;;;5191139;27;45449;-63
2023/12/22 05:42:26;;;;;;;0.40;0.40;;;16.40;51.30;;;;;;5191340;27;45449;-63
2023/12/22 05:44:53;;;;;;;1.40;0.60;;;16.40;51.40;;;;;;5191481;27;45312;-63
2023/12/22 05:47:20;;;;;;;0.60;0.40;;;16.40;51.40;;;;;;5191325;27;45194;-63
2023/12/22 05:49:48;;;;;;;0.85;0.38;;;16.40;51.50;;;;;;5184947;27;45252;-63
2023/12/22 05:52:15;;;;;;;2.80;0.60;;;16.40;51.40;;;;;;5169995;27;47479;-63
2023/12/22 05:54:42;;;;;;;0.45;0.45;;;16.40;51.50;;;;;;5169763;27;45312;-63
2023/12/22 05:57:09;;;;;;;0.30;0.30;;;16.30;51.50;;;;;;5170196;27;45374;-63
2023/12/22 05:59:36;;;;;;;0.65;0.28;;;16.30;51.50;;;;;;5169929;27;45530;-62
2023/12/22 06:02:03;;;;;;;0.73;0.30;;;16.30;51.50;;;;;;5169788;27;45262;-63
2023/12/22 06:04:30;;;;;;;1.13;0.50;;;16.30;51.50;;;;;;5169909;27;45356;-63
2023/12/22 06:06:58;;;;;;;2.95;0.43;;;16.30;51.40;;;;;;5169713;27;45379;-63
2023/12/22 06:09:25;;;;;;;0.75;0.50;;;16.30;51.60;;;;;;5169897;27;45225;-63
2023/12/22 06:11:52;;;;;;;1.13;0.52;;;16.30;51.60;;;;;;5169410;27;48426;-63
2023/12/22 06:14:19;;;;;;;0.32;0.32;;;16.40;51.50;;;;;;5169439;27;45354;-63
2023/12/22 06:16:46;;;;;;;1.08;0.40;;;16.40;51.40;;;;;;5169443;27;45292;-62
2023/12/22 06:19:13;;;;;;;1.70;1.02;;;16.50;51.30;;;;;;5169685;27;45303;-63
2023/12/22 06:21:40;;;;;;;0.50;0.45;;;16.60;51.10;;;;;;5169898;27;45503;-63
2023/12/22 06:24:09;;;;;;;1.95;0.60;;;16.70;50.90;;;;;;5190552;27;45275;-63
2023/12/22 06:26:36;;;;;;;1.00;0.65;;;16.90;50.70;;;;;;5190678;27;45495;-63
2023/12/22 06:29:03;;;;;;;0.57;0.50;;;17.00;50.30;;;;;;5190931;27;45305;-63
2023/12/22 06:31:30;;;;;;;1.00;0.45;;;17.10;50.00;;;;;;5190287;27;46813;-63
2023/12/22 06:34:00;;;;;;;1.65;0.50;;;17.30;49.80;;;;;;5190578;27;45203;-63
2023/12/22 06:36:27;;;;;;;0.60;0.43;;;17.40;49.50;;;;;;5190571;27;45368;-63
2023/12/22 06:38:54;;;;;;;2.92;0.73;;;17.60;49.30;;;;;;5190362;27;45398;-63
2023/12/22 06:41:23;;;;;;;0.82;0.50;;;17.70;49.00;;;;;;5190158;27;46359;-65
2023/12/22 06:43:50;;;;;;;1.25;0.55;;;17.90;48.70;;;;;;5190401;27;45410;-63
2023/12/22 06:46:17;;;;;;;2.20;0.55;;;18.00;48.50;;;;;;5190054;27;45355;-63
2023/12/22 06:48:44;;;;;;;0.90;0.50;;;18.10;48.30;;;;;;5190644;27;45366;-63
2023/12/22 06:51:18;;;;;;;0.40;0.40;;;18.20;48.00;;;;;;5171206;27;45453;-64
2023/12/22 06:53:45;;;;;;;0.50;0.50;;;18.30;47.80;;;;;;5169028;27;45291;-64
2023/12/22 06:56:16;;;;;;;0.85;0.43;;;18.40;47.50;;;;;;5169052;27;45318;-63
2023/12/22 06:58:46;;;;;;;0.43;0.43;;;18.50;47.40;;;;;;5169211;27;45515;-63
2023/12/22 07:01:13;;;;;;;0.68;0.40;;;18.60;47.20;;;;;;5168834;27;46284;-63
2023/12/22 07:03:40;;;;;;;0.38;0.38;;;18.70;47.00;;;;;;5168838;27;45425;-64
2023/12/22 07:06:07;;;;;;;0.52;0.40;;;18.80;46.90;;;;;;5168677;27;45304;-63
2023/12/22 07:08:34;;;;;;;1.13;0.30;;;18.90;46.80;;;;;;5169148;27;45441;-63
2023/12/22 07:11:01;;;;;;;1.13;0.50;;;18.90;46.60;;;;;;5168631;27;46358;-63
2023/12/22 07:13:27;;;;;;;2.20;0.60;;;19.00;46.50;;;;;;5168593;27;45133;-63
2023/12/22 07:15:56;;;;;;;1.75;0.52;;;19.10;46.40;;;;;;5168682;27;45142;-63
2023/12/22 07:18:23;;;;;;;0.20;0.20;;;19.10;46.30;;;;;;5168601;27;45414;-63
2023/12/22 07:20:49;;;;;;;0.80;0.50;;;19.10;46.20;;;;;;5168697;27;45262;-64
2023/12/22 07:23:16;;;;;;;1.08;0.57;;;19.20;46.20;;;;;;5183747;27;45264;-64
2023/12/22 07:25:43;;;;;;;0.38;0.38;;;19.20;46.00;;;;;;5189760;27;45282;-63
2023/12/22 07:28:10;;;;;;;0.90;0.50;;;19.30;46.00;;;;;;5190118;27;45327;-63
2023/12/22 07:30:37;;;;;;;0.55;0.43;;;19.30;45.80;;;;;;5189731;27;46379;-63
2023/12/22 07:33:05;;;;;;;1.13;0.57;;;19.30;45.80;;;;;;5190634;27;45530;-63
2023/12/22 07:35:32;;;;;;;0.85;0.65;;;19.40;45.70;;;;;;5193489;27;45258;-62
2023/12/22 07:37:59;;;;;;;0.68;0.50;;;19.40;45.60;;;;;;5194018;27;45229;-63
2023/12/22 07:40:26;;;;;;;1.45;0.60;;;19.50;45.60;;;;;;5192822;27;45354;-63
2023/12/22 07:42:53;;;;;;;1.45;0.60;;;19.50;45.50;;;;;;5193028;27;45393;-62
2023/12/22 07:45:19;;;;;;;0.57;0.45;;;19.50;45.40;;;;;;5193634;27;45527;-63
2023/12/22 07:47:46;;;;;;;2.03;0.55;;;19.50;45.40;;;;;;5193279;27;45461;-63
2023/12/22 07:50:15;;;;;;;1.58;0.43;;;19.60;45.40;;;;;;5182435;27;46347;-63
2023/12/22 07:52:42;;;;;;;1.45;0.50;;;19.60;46.00;;;;;;5171846;27;45426;-63
2023/12/22 07:55:10;;;;;;;0.32;0.32;;;19.60;45.30;;;;;;5171869;27;45380;-63
2023/12/22 07:57:37;;;;;;;1.05;0.50;;;19.50;45.30;;;;;;5172039;27;45169;-63
2023/12/22 08:00:05;;;;;;;0.93;0.57;;;19.60;45.30;;;;;;5171315;27;47305;-63
2023/12/22 08:02:32;;;;;;;1.80;0.70;;;19.60;45.40;;;;;;5171681;27;45383;-63
2023/12/22 08:04:59;;;;;;;1.30;0.50;;;19.60;45.40;;;;;;5171713;27;45317;-62
2023/12/22 08:07:27;;;;;;;1.05;0.70;;;19.50;45.40;;;;;;5171728;27;45182;-66
2023/12/22 08:09:54;;;;;;;0.43;0.38;;;19.50;45.40;;;;;;5170004;27;46872;-66
2023/12/22 08:12:21;;;;;;;1.25;0.70;;;19.50;45.40;;;;;;5165698;27;45543;-63
2023/12/22 08:14:48;;;;;;;0.52;0.40;;;19.40;45.50;;;;;;5170793;27;45436;-63
2023/12/22 08:17:15;;;;;;;1.30;0.50;;;19.40;45.60;;;;;;5171216;27;45326;-63
2023/12/22 08:19:43;;;;;;;0.70;0.57;;;19.30;45.60;;;;;;5171023;27;45465;-64
2023/12/22 08:22:10;;;;;;;2.08;0.45;;;19.30;45.70;;;;;;5165317;27;45172;-63
2023/12/22 08:24:39;;;;;;;0.63;0.50;;;19.30;45.80;;;;;;5150345;27;45452;-64
2023/12/22 08:27:06;;;;;;;0.50;0.50;;;19.20;46.40;;;;;;5150353;27;45368;-64
2023/12/22 08:29:33;;;;;;;1.17;0.50;;;19.20;45.90;;;;;;5149830;27;46478;-64
2023/12/22 08:32:00;;;;;;;1.45;0.68;;;19.10;46.00;;;;;;5150305;27;45258;-67
2023/12/22 08:34:27;;;;;;;0.68;0.55;;;19.10;46.10;;;;;;5150317;27;45428;-64
2023/12/22 08:36:54;;;;;;;2.67;0.50;;;19.10;46.20;;;;;;5150264;27;45510;-65
2023/12/22 08:39:20;;;;;;;0.93;0.80;;;19.00;46.20;;;;;;5149559;27;46395;-65
2023/12/22 08:41:49;;;;;;;2.65;0.60;;;19.00;46.40;;;;;;5150262;27;45305;-65
2023/12/22 08:44:15;;;;;;;0.40;0.40;;;18.90;46.40;;;;;;5149152;27;45362;-64
2023/12/22 08:46:42;;;;;;;1.42;0.75;;;18.90;46.50;;;;;;5150349;27;45468;-64
2023/12/22 08:49:09;;;;;;;1.80;0.90;;;18.80;46.50;;;;;;5149997;27;46462;-65
2023/12/22 08:51:36;;;;;;;0.73;0.50;;;18.80;46.70;;;;;;5150204;27;45272;-64
2023/12/22 08:54:04;;;;;;;1.65;0.63;;;18.80;46.80;;;;;;5150261;27;45195;-64
2023/12/22 08:56:30;;;;;;;0.40;0.40;;;18.70;46.80;;;;;;5150079;27;45173;-65
2023/12/22 08:58:59;;;;;;;0.88;0.70;;;18.80;46.80;;;;;;5149731;27;46399;-64
2023/12/22 09:01:26;;;;;;;1.60;0.50;;;18.80;46.80;;;;;;5171408;27;45343;-64
2023/12/22 09:03:53;;;;;;;0.98;0.60;;;18.80;46.80;;;;;;5171163;27;45261;-64
2023/12/22 09:06:25;;;;;;;0.50;0.50;;;18.90;46.70;;;;;;5170974;27;45121;-64
2023/12/22 09:08:52;;;;;;;0.85;0.75;;;19.00;46.50;;;;;;5170762;27;45453;-64
2023/12/22 09:11:21;;;;;;;0.68;0.60;;;19.10;46.40;;;;;;5163555;27;45176;-64
2023/12/22 09:13:47;;;;;;;1.38;0.70;;;19.20;46.20;;;;;;5161966;27;45332;-64
2023/12/22 09:16:21;;;;;;;2.50;0.80;;;19.30;46.00;;;;;;5154076;27;45391;-65
2023/12/22 09:18:48;;;;;;;1.98;1.00;;;19.40;45.90;;;;;;5149587;27;45543;-64
2023/12/22 09:21:15;;;;;;;1.13;0.70;;;19.50;45.80;;;;;;5159867;27;45379;-74
2023/12/22 09:23:45;;;;;;;3.30;0.77;;;19.50;45.60;;;;;;5152096;27;45175;-75
2023/12/22 09:26:12;;;;;;;0.77;0.63;;;19.60;45.40;;;;;;5150720;27;45370;-75
2023/12/22 09:28:39;;;;;;;1.02;0.65;;;19.60;45.40;;;;;;5151552;27;46304;-76
2023/12/22 09:31:06;;;;;;;2.17;0.88;;;19.70;45.30;;;;;;5162335;27;45373;-76
2023/12/22 09:33:34;;;;;;;2.97;0.95;;;19.70;45.20;;;;;;5161788;27;45246;-64
2023/12/22 09:36:01;;;;;;;3.00;0.73;;;19.70;45.10;;;;;;5160632;27;45355;-64
2023/12/22 09:38:29;;;;;;;1.20;0.70;;;19.70;45.20;;;;;;5149944;27;45384;-64
2023/12/22 09:40:56;;;;;;;0.80;0.77;;;19.70;45.10;;;;;;5149248;27;45380;-65
2023/12/22 09:43:23;;;;;;;1.58;0.70;;;19.70;45.20;;;;;;5149311;27;45271;-65
2023/12/22 09:45:50;;;;;;;1.00;0.88;;;19.70;45.20;;;;;;5150527;27;45178;-64
2023/12/22 09:48:20;;;;;;;2.40;0.88;;;19.60;45.30;;;;;;5148947;27;45454;-64
2023/12/22 09:50:48;;;;;;;1.95;0.90;;;19.60;45.30;;;;;;5164064;27;45252;-63
2023/12/22 09:53:15;;;;;;;2.53;1.00;;;19.60;45.40;;;;;;5169824;27;45253;-63
2023/12/22 09:55:44;;;;;;;1.15;0.70;;;19.60;45.50;;;;;;5158449;27;45344;-63
2023/12/22 09:58:13;;;;;;;1.27;0.77;;;19.50;46.10;;;;;;5148785;27;46675;-63
2023/12/22 10:00:39;;;;;;;1.48;0.80;;;19.50;45.60;;;;;;5149671;27;45324;-62
2023/12/22 10:03:07;;;;;;;2.20;0.70;;;19.50;45.70;;;;;;5148759;27;45488;-65
2023/12/22 10:05:33;;;;;;;2.25;0.70;;;19.40;45.70;;;;;;5162806;27;45551;-65
2023/12/22 10:08:03;;;;;;;0.93;0.63;;;19.40;45.80;;;;;;5153403;27;46299;-62
2023/12/22 10:10:30;;;;;;;2.65;1.00;;;19.30;45.90;;;;;;5151326;27;45303;-65
2023/12/22 10:12:57;;;;;;;2.05;0.95;;;19.30;45.90;;;;;;5167412;27;45380;-63
2023/12/22 10:15:24;;;;;;;2.20;0.73;;;19.30;46.00;;;;;;5157310;27;45566;-66
2023/12/22 10:17:51;;;;;;;1.48;0.70;;;19.20;46.00;;;;;;5152205;27;45478;-63
2023/12/22 10:20:18;;;;;;;2.55;0.77;;;19.20;46.30;;;;;;5148393;27;45366;-65
2023/12/22 10:22:46;;;;;;;10.27;1.48;;;19.20;46.40;;;;;;5158834;27;45189;-61
2023/12/22 10:25:15;;;;;;;7.40;1.38;;;19.10;47.40;;;;;;5161230;27;45371;-61
2023/12/22 10:27:43;;;;;;;10.55;1.30;;;19.10;47.70;;;;;;5157015;27;46287;-61
2023/12/22 10:30:10;;;;;;;6.22;1.45;;;19.00;47.60;;;;;;5158489;27;45282;-65
2023/12/22 10:32:40;;;;;;;7.28;1.27;;;18.90;47.90;;;;;;5149439;27;45377;-64
2023/12/22 10:35:08;;;;;;;9.70;1.27;;;18.90;48.50;;;;;;5149548;27;45260;-64
2023/12/22 10:37:40;;;;;;;14.48;1.45;;;19.00;48.60;;;;;;5159716;27;45490;-67
2023/12/22 10:40:09;;;;;;;2.70;0.90;;;19.10;48.50;;;;;;5168807;27;45196;-63
2023/12/22 10:42:37;;;;;;;5.55;1.15;;;19.30;48.10;;;;;;5148000;27;45285;-64
2023/12/22 10:45:05;;;;;;;12.13;1.13;;;19.50;47.90;;;;;;5149922;27;45318;-65
2023/12/22 10:47:32;;;;;;;5.78;1.05;;;19.70;47.40;;;;;;5149575;27;46419;-65
2023/12/22 10:50:02;;;;;;;8.13;1.10;;;19.80;47.20;;;;;;5160885;27;45638;-63
2023/12/22 10:52:29;;;;;;;5.25;0.95;;;19.80;47.40;;;;;;5148702;27;45340;-67
2023/12/22 10:54:57;;;;;;;6.35;1.30;;;20.00;47.30;;;;;;5148443;27;45498;-67
2023/12/22 10:57:24;;;;;;;7.63;1.23;;;20.00;47.30;;;;;;5156239;27;45464;-63
2023/12/22 10:59:52;;;;;;;2.35;1.10;;;20.10;46.60;;;;;;5157598;27;45465;-64
2023/12/22 11:02:20;;;;;;;5.65;1.13;;;20.20;46.40;;;;;;5166031;27;45448;-64
2023/12/22 11:04:51;;;;;;;3.53;0.88;;;20.10;46.40;;;;;;5167009;27;45396;-65
2023/12/22 11:07:19;;;;;;;5.55;1.38;;;20.10;46.20;;;;;;5147446;27;45496;-63
2023/12/22 11:09:45;;;;;;;3.25;0.88;;;20.10;46.20;;;;;;5165174;27;45550;-67
2023/12/22 11:12:12;;;;;;;1.75;0.82;;;20.20;46.20;;;;;;5153668;27;45419;-62
2023/12/22 11:14:39;;;;;;;3.08;1.25;;;20.20;46.30;;;;;;5159119;27;45329;-64
2023/12/22 11:17:07;;;;;;;3.00;1.23;;;20.20;46.50;;;;;;5161128;27;45522;-65
2023/12/22 11:19:34;;;;;;;2.20;1.23;;;20.20;46.40;;;;;;5164598;27;45271;-65
2023/12/22 11:22:01;;;;;;;3.08;1.20;;;20.20;46.30;;;;;;5147908;27;45437;-63
2023/12/22 11:24:28;;;;;;;1.55;1.10;;;20.20;46.20;;;;;;5155386;27;45268;-66
2023/12/22 11:26:55;;;;;;;2.17;0.88;;;20.20;46.10;;;;;;5156288;27;47308;-64
2023/12/22 11:29:21;;;;;;;3.03;1.00;;;20.30;45.90;;;;;;5162755;27;45333;-64
2023/12/22 11:31:48;;;;;;;4.47;1.42;;;20.30;45.80;;;;;;5151351;27;45435;-64
2023/12/22 11:34:17;;;;;;;3.47;1.00;;;20.30;45.80;;;;;;5162554;27;45345;-65
2023/12/22 11:36:43;;;;;;;4.38;1.35;;;20.30;45.80;;;;;;5157344;27;46347;-64
2023/12/22 11:39:10;;;;;;;2.17;1.20;;;20.40;45.80;;;;;;5167759;27;45316;-65
2023/12/22 11:41:37;;;;;;;3.42;1.27;;;20.40;45.90;;;;;;5155375;27;45229;-67
2023/12/22 11:44:05;;;;;;;1.05;1.00;;;20.40;46.10;;;;;;5163798;27;45304;-64
2023/12/22 11:46:33;;;;;;;6.78;1.70;;;20.50;45.90;;;;;;5154713;27;46382;-64
2023/12/22 11:49:00;;;;;;;3.80;1.20;;;20.50;45.70;;;;;;5155157;27;45323;-65
2023/12/22 11:51:34;;;;;;;3.03;1.05;;;20.60;45.50;;;;;;5164170;27;45247;-63
2023/12/22 11:54:01;;;;;;;5.63;1.45;;;20.60;45.20;;;;;;5151235;27;45397;-67
2023/12/22 11:56:27;;;;;;;2.17;1.30;;;20.50;45.40;;;;;;5159988;27;46279;-64
2023/12/22 11:58:57;;;;;;;2.38;1.00;;;20.50;45.60;;;;;;5158405;27;45355;-66
2023/12/22 12:01:24;;;;;;;2.17;1.30;;;20.40;45.60;;;;;;5164087;27;45253;-67
2023/12/22 12:03:52;;;;;;;13.10;1.23;;;20.50;45.70;;;;;;5150977;27;45259;-64
2023/12/22 12:06:33;;;;;;;1.30;1.02;;;20.50;46.00;;;;;;5161276;27;46409;-65
2023/12/22 12:09:02;;;;;;;4.80;1.17;;;20.40;45.80;;;;;;5159229;27;45346;-66
2023/12/22 12:12:03;;;;;;;1.83;1.10;;;20.50;45.80;;;;;;5151491;27;45629;-67
2023/12/22 12:14:32;;;;;;;1.48;0.98;;;20.50;46.00;;;;;;5147740;27;45343;-64
2023/12/22 12:17:01;;;;;;;1.67;1.17;;;20.50;45.70;;;;;;5147114;27;46704;-71
2023/12/22 12:19:28;;;;;;;1.50;0.85;;;20.40;45.80;;;;;;5148694;27;45347;-65
2023/12/22 12:21:56;;;;;;;2.72;1.35;;;20.40;46.00;;;;;;5154156;27;45228;-65
2023/12/22 12:24:23;;;;;;;2.20;0.98;;;20.30;46.20;;;;;;5171688;27;45482;-66
2023/12/22 12:26:51;;;;;;;1.45;1.02;;;20.20;46.30;;;;;;5171086;27;46379;-68
2023/12/22 12:29:18;;;;;;;1.50;0.70;;;20.10;46.50;;;;;;5170984;27;45307;-66
2023/12/22 12:31:45;;;;;;;1.92;0.95;;;20.10;46.60;;;;;;5171356;27;45314;-66
2023/12/22 12:34:14;;;;;;;5.63;1.27;;;20.00;47.00;;;;;;5167960;27;45301;-67
2023/12/22 12:36:41;;;;;;;1.77;0.93;;;19.90;47.00;;;;;;5163305;27;45627;-67
2023/12/22 12:39:09;;;;;;;2.00;0.90;;;19.90;47.30;;;;;;5150164;27;45260;-67
2023/12/22 12:41:37;;;;;;;0.60;0.60;;;19.80;48.00;;;;;;5150764;27;45293;-66
2023/12/22 12:44:05;;;;;;;2.90;0.90;;;19.90;48.10;;;;;;5150895;27;45437;-65
2023/12/22 12:46:35;;;;;;;3.65;1.13;;;19.90;48.00;;;;;;5153656;27;46380;-66